KLRU/LRU METAR and TAF weather

Enter ICAO airport designator
Station Type Date Time Source
KLRU METAR 2022/08/13 13:15 UTC NOAA

KLRU 131315Z AUTO 00000KT 10SM CLR 20/16 A3021 RMK AO2 T01950157


Station Type Date Time Source
KLRU Decoded METAR 2022/08/13 13:15 UTC NOAA

Las Cruces, Las Cruces International Airport, NM, United States (KLRU) 32-17-22N 106-55-19W
Aug 13, 2022 - 09:15 AM EDT / 2022.08.13 1315 UTC
Wind: Calm:0
Visibility: 10 mile(s):0
Sky conditions: clear
Temperature: 67.1 F (19.5 C)
Dew Point: 60.3 F (15.7 C)
Relative Humidity: 78%
Pressure (altimeter): 30.21 in. Hg (1023 hPa)
ob: KLRU 131315Z AUTO 00000KT 10SM CLR 20/16 A3021 RMK AO2 T01950157
cycle: 13

Station Type Date Time Source
KLRU TAF 2022/08/13 12:42 UTC NOAA

TAF KLRU 131140Z 1312/1412 35006KT P6SM SCT100 SCT250
FM131900 20008KT P6SM SCT080 BKN150

Example: see airport list